Time;durP1;ratioP1;P1;durP2;ratioP2;P2;SDS_P1;SDS_P2;PMS_P1;PMS_P2;Temp;Humidity;BMP_temperature;BMP_pressure;BME280_temperature;BME280_humidity;BME280_pressure;Samples;Min_cycle;Max_cycle;Signal;HPM_P1;HPM_P2
2022/02/06 00:00:34;;;;;;;2.13;1.20;;;2.00;88.30;;;;;;5024125;28;20041;-80
2022/02/06 00:03:01;;;;;;;2.15;1.25;;;2.10;88.30;;;;;;5024456;28;20022;-79
2022/02/06 00:05:27;;;;;;;2.63;1.40;;;2.10;88.00;;;;;;5026043;28;20034;-79
2022/02/06 00:07:52;;;;;;;3.88;1.23;;;2.10;88.10;;;;;;5023161;28;20032;-79
2022/02/06 00:10:19;;;;;;;5.28;1.48;;;2.10;88.20;;;;;;5024315;28;20029;-80
2022/02/06 00:12:46;;;;;;;3.13;1.40;;;2.10;88.30;;;;;;5033044;28;20046;-79
2022/02/06 00:15:13;;;;;;;3.35;1.42;;;2.10;88.40;;;;;;5033112;28;20129;-80
2022/02/06 00:17:39;;;;;;;4.05;1.33;;;2.20;88.30;;;;;;5025802;28;20101;-82
2022/02/06 00:20:06;;;;;;;4.05;1.10;;;2.20;88.80;;;;;;5025580;28;20035;-80
2022/02/06 00:25:33;;;;;;;4.18;1.63;;;2.20;88.20;;;;;;5029478;28;20017;-81
2022/02/06 00:33:12;;;;;;;3.05;1.05;;;2.10;88.30;;;;;;5035786;28;20030;-81
2022/02/06 00:35:54;;;;;;;1.67;0.88;;;2.10;88.50;;;;;;5035187;28;20083;-78
2022/02/06 00:43:40;;;;;;;5.22;1.33;;;2.10;88.40;;;;;;5035126;28;20014;-79
2022/02/06 00:46:08;;;;;;;4.05;0.98;;;2.20;88.30;;;;;;5035221;28;20022;-81
2022/02/06 00:48:39;;;;;;;6.00;1.38;;;2.10;88.00;;;;;;5035444;28;20010;-81
2022/02/06 00:51:27;;;;;;;5.15;1.10;;;2.10;87.80;;;;;;5025583;28;20014;-81
2022/02/06 00:53:53;;;;;;;4.70;1.15;;;2.10;88.00;;;;;;5010632;28;20126;-78
2022/02/06 00:56:19;;;;;;;3.88;1.00;;;2.10;88.00;;;;;;4996304;28;20030;-77
2022/02/06 00:58:45;;;;;;;3.55;1.23;;;2.20;87.90;;;;;;4996055;28;20030;-78
2022/02/06 01:01:11;;;;;;;5.85;1.10;;;2.20;87.70;;;;;;4996558;28;20464;-78
2022/02/06 01:03:38;;;;;;;6.15;1.30;;;2.20;87.30;;;;;;4996449;28;20034;-79
2022/02/06 01:06:04;;;;;;;2.88;1.13;;;2.20;87.20;;;;;;4995705;28;20030;-78
2022/02/06 01:08:30;;;;;;;4.00;1.33;;;2.30;87.20;;;;;;4997504;28;20034;-80
2022/02/06 01:10:56;;;;;;;3.90;0.90;;;2.30;87.00;;;;;;4997449;28;20054;-79
2022/02/06 01:13:35;;;;;;;3.05;0.90;;;2.30;86.90;;;;;;4998020;28;20038;-79
2022/02/06 01:16:10;;;;;;;3.53;0.70;;;2.20;87.10;;;;;;4997729;28;20022;-78
2022/02/06 01:18:44;;;;;;;5.13;0.80;;;2.20;87.20;;;;;;4995597;28;20114;-79
2022/02/06 01:21:26;;;;;;;2.80;1.00;;;2.20;87.30;;;;;;5014311;28;20021;-78
2022/02/06 01:24:35;;;;;;;2.73;0.90;;;2.20;87.40;;;;;;4978924;28;20130;-78
2022/02/06 01:29:27;;;;;;;3.20;0.88;;;2.20;87.70;;;;;;4980507;28;20045;-78
2022/02/06 01:37:06;;;;;;;4.95;0.80;;;2.30;87.40;;;;;;4977782;28;20027;-78
2022/02/06 01:39:49;;;;;;;;;;;2.30;87.50;;;;;;4978774;28;20055;-77
2022/02/06 01:42:25;;;;;;;2.85;0.85;;;2.30;87.60;;;;;;4977389;28;19953;-77
2022/02/06 02:22:28;;;;;;;7.40;1.05;;;2.30;89.60;;;;;;5001388;28;20065;-79
2022/02/06 02:33:41;;;;;;;3.05;0.80;;;2.30;90.00;;;;;;4999375;28;20113;-79
2022/02/06 02:46:53;;;;;;;3.03;1.17;;;2.30;90.20;;;;;;4998731;28;20029;-78
2022/02/06 02:49:21;;;;;;;3.35;1.00;;;2.30;90.20;;;;;;5001358;28;20027;-80
2022/02/06 02:51:49;;;;;;;3.00;0.88;;;2.30;90.30;;;;;;5004869;28;20033;-79
2022/02/06 02:54:22;;;;;;;5.68;1.60;;;2.20;90.40;;;;;;4998723;28;20031;-78
2022/02/06 02:57:02;;;;;;;3.60;0.73;;;2.20;90.50;;;;;;5000470;28;20060;-81
2022/02/06 03:00:20;;;;;;;2.67;0.90;;;2.20;90.60;;;;;;5010024;28;20026;-80
2022/02/06 03:02:23;;;;;;;2.92;0.95;;;2.10;90.60;;;;;;4995682;28;20042;-78
2022/02/06 03:04:54;;;;;;;3.78;0.70;;;2.10;90.60;;;;;;4997745;28;20157;-78
2022/02/06 03:07:23;;;;;;;3.28;0.93;;;2.20;90.70;;;;;;5028093;22;20045;-85
2022/02/06 03:09:51;;;;;;;4.10;0.70;;;2.20;90.80;;;;;;5011059;28;20046;-85
2022/02/06 03:12:34;;;;;;;;;;;;;;;;;;;;;
2022/02/06 03:15:18;;;;;;;1.83;0.68;;;2.10;90.80;;;;;;5006538;28;20090;-85
2022/02/06 03:17:56;;;;;;;1.23;0.88;;;2.10;90.70;;;;;;5021371;28;20030;-85
2022/02/06 03:20:23;;;;;;;6.72;1.10;;;2.10;90.90;;;;;;5012235;28;20032;-85
2022/02/06 03:22:55;;;;;;;2.63;0.82;;;2.00;90.90;;;;;;5025104;28;20463;-85
2022/02/06 03:25:23;;;;;;;1.73;0.50;;;2.10;91.00;;;;;;5041452;28;20029;-85
2022/02/06 03:27:51;;;;;;;2.30;0.60;;;2.00;91.00;;;;;;5025799;28;20022;-84
2022/02/06 03:30:21;;;;;;;2.22;0.70;;;2.10;91.00;;;;;;5025752;28;20022;-85
2022/02/06 03:32:55;;;;;;;2.80;0.75;;;2.10;91.10;;;;;;5026612;28;20109;-83
2022/02/06 03:35:24;;;;;;;6.22;1.30;;;2.10;91.00;;;;;;5025884;28;20022;-84
2022/02/06 03:37:55;;;;;;;6.25;1.02;;;2.10;91.00;;;;;;5024199;28;20049;-86
2022/02/06 03:40:25;;;;;;;4.18;0.75;;;2.10;90.90;;;;;;5024040;28;20121;-84
2022/02/06 03:43:05;;;;;;;5.45;0.90;;;2.20;90.90;;;;;;5024694;28;20028;-84
2022/02/06 03:45:52;;;;;;;3.92;1.05;;;2.20;90.80;;;;;;5025787;28;20486;-84
2022/02/06 03:48:34;;;;;;;1.65;0.63;;;2.20;90.80;;;;;;5026266;28;20025;-85
2022/02/06 03:51:06;;;;;;;5.03;1.70;;;2.20;90.80;;;;;;5029298;28;20025;-86
2022/02/06 03:53:32;;;;;;;;;;;2.30;90.80;;;;;;5030187;28;20022;-85
2022/02/06 03:56:04;;;;;;;4.13;1.23;;;2.30;90.70;;;;;;5029652;28;19930;-84
2022/02/06 03:58:33;;;;;;;3.15;0.73;;;2.30;90.60;;;;;;5028535;28;20033;-85
2022/02/06 04:01:02;;;;;;;3.70;0.70;;;2.30;90.60;;;;;;5023391;28;20041;-84
2022/02/06 04:03:30;;;;;;;3.15;0.80;;;2.30;90.50;;;;;;5039827;28;20127;-85
2022/02/06 04:05:59;;;;;;;4.15;0.68;;;2.40;90.50;;;;;;5022858;28;20105;-85
2022/02/06 04:08:27;;;;;;;11.52;2.42;;;2.40;90.30;;;;;;5022285;28;20037;-84
2022/02/06 04:10:54;;;;;;;2.55;0.70;;;2.50;90.30;;;;;;5021239;28;20045;-84
2022/02/06 04:13:35;;;;;;;6.03;0.85;;;2.50;90.20;;;;;;5041208;28;20033;-84
2022/02/06 04:16:14;;;;;;;1.80;0.70;;;2.60;90.20;;;;;;5037761;28;20026;-86
2022/02/06 04:18:50;;;;;;;3.28;0.70;;;2.60;90.00;;;;;;5034099;28;20041;-83
2022/02/06 04:21:16;;;;;;;5.07;0.85;;;2.60;90.00;;;;;;5018682;28;20026;-83
2022/02/06 04:23:42;;;;;;;4.28;0.80;;;2.60;90.00;;;;;;5024785;28;20033;-84
2022/02/06 04:26:11;;;;;;;1.60;0.50;;;2.60;89.70;;;;;;5033740;28;20486;-83
2022/02/06 04:28:39;;;;;;;2.15;0.70;;;2.60;89.80;;;;;;5022524;28;20086;-83
2022/02/06 04:31:09;;;;;;;4.22;0.60;;;2.60;90.00;;;;;;5029693;28;20018;-84
2022/02/06 04:33:37;;;;;;;4.82;0.75;;;2.60;90.00;;;;;;5032125;28;20035;-82
2022/02/06 04:36:12;;;;;;;3.15;1.13;;;2.60;90.00;;;;;;5032479;28;20064;-83
2022/02/06 04:39:03;;;;;;;2.42;0.77;;;2.60;90.00;;;;;;5025748;28;20030;-85
2022/02/06 04:42:06;;;;;;;3.70;1.02;;;2.60;90.10;;;;;;5025955;28;20042;-84
2022/02/06 05:15:04;;;;;;;2.70;0.40;;;2.90;89.00;;;;;;5027693;28;20040;-84
2022/02/06 05:18:13;;;;;;;5.68;0.82;;;2.90;89.00;;;;;;5023537;28;20030;-85
2022/02/06 05:26:02;;;;;;;3.60;0.93;;;3.00;88.70;;;;;;5024170;28;20018;-84
2022/02/06 05:28:43;;;;;;;9.63;0.82;;;3.00;88.50;;;;;;5024314;28;20387;-84
2022/02/06 05:31:28;;;;;;;4.85;0.98;;;3.10;88.10;;;;;;5024338;28;20052;-84
2022/02/06 05:33:54;;;;;;;5.85;1.13;;;3.10;87.90;;;;;;5031494;28;20057;-84
2022/02/06 05:36:23;;;;;;;5.88;1.20;;;3.10;87.60;;;;;;5021782;28;20030;-83
2022/02/06 05:38:50;;;;;;;3.28;1.42;;;3.20;87.50;;;;;;5018177;28;20486;-83
2022/02/06 05:41:20;;;;;;;2.60;0.85;;;3.20;87.10;;;;;;5016920;28;20030;-83
2022/02/06 05:43:50;;;;;;;2.00;0.60;;;3.20;86.70;;;;;;5020845;28;20026;-83
2022/02/06 05:46:28;;;;;;;3.97;0.70;;;3.30;86.20;;;;;;4999714;28;20037;-84
2022/02/06 05:48:54;;;;;;;6.68;0.70;;;3.40;85.40;;;;;;5021550;28;20068;-84
2022/02/06 05:51:20;;;;;;;1.77;0.50;;;3.40;85.20;;;;;;5021385;28;20029;-82
2022/02/06 05:53:46;;;;;;;2.42;0.73;;;3.40;84.60;;;;;;5024544;28;20087;-85
2022/02/06 05:56:16;;;;;;;2.75;0.80;;;3.40;84.00;;;;;;5020661;28;20105;-84
2022/02/06 05:58:43;;;;;;;5.18;0.68;;;3.50;83.50;;;;;;5019661;28;20026;-84
2022/02/06 06:01:13;;;;;;;4.22;0.80;;;3.60;83.50;;;;;;5018061;28;20026;-84
2022/02/06 06:03:46;;;;;;;3.45;0.65;;;3.60;83.20;;;;;;5017867;28;20439;-85
2022/02/06 06:06:12;;;;;;;5.95;0.52;;;3.60;83.10;;;;;;5017615;28;20034;-84
2022/02/06 06:08:41;;;;;;;3.67;1.10;;;3.60;82.90;;;;;;5018054;28;20120;-86
2022/02/06 06:11:16;;;;;;;3.55;0.55;;;3.60;83.00;;;;;;5018819;28;20026;-85
2022/02/06 06:13:44;;;;;;;3.70;0.57;;;3.60;82.60;;;;;;5017644;28;20416;-85
2022/02/06 06:16:10;;;;;;;6.30;1.40;;;3.60;82.20;;;;;;5019770;28;20048;-83
2022/02/06 06:18:46;;;;;;;1.90;0.57;;;3.60;82.20;;;;;;5034423;28;20463;-84
2022/02/06 06:21:23;;;;;;;2.72;0.75;;;3.70;81.80;;;;;;5009867;28;20026;-85
2022/02/06 06:23:54;;;;;;;6.05;0.77;;;3.70;81.20;;;;;;4997853;28;20031;-85
2022/02/06 06:26:22;;;;;;;2.75;0.70;;;3.70;80.60;;;;;;4998093;28;20129;-83
2022/02/06 06:28:48;;;;;;;6.43;0.73;;;3.70;80.30;;;;;;5014717;28;20033;-85
2022/02/06 06:31:17;;;;;;;1.58;0.70;;;3.80;80.40;;;;;;4999945;28;20030;-85
2022/02/06 06:33:43;;;;;;;3.65;0.50;;;3.80;80.10;;;;;;5000113;28;20514;-84
2022/02/06 06:36:12;;;;;;;2.58;0.70;;;3.80;79.70;;;;;;5014644;28;20042;-85
2022/02/06 06:38:41;;;;;;;4.97;0.70;;;3.80;79.90;;;;;;4998136;28;20026;-84
2022/02/06 06:41:07;;;;;;;3.17;0.55;;;3.80;80.00;;;;;;4998104;28;20487;-84
2022/02/06 06:43:33;;;;;;;2.53;0.73;;;3.70;80.10;;;;;;5000162;28;20157;-85
2022/02/06 06:46:02;;;;;;;2.28;0.55;;;3.80;79.80;;;;;;5003195;28;20054;-85
2022/02/06 06:48:31;;;;;;;1.88;0.63;;;3.90;79.40;;;;;;5000467;28;20026;-83
2022/02/06 06:50:59;;;;;;;4.65;0.47;;;3.90;79.30;;;;;;5003451;28;20030;-83
2022/02/06 06:53:27;;;;;;;3.72;0.73;;;3.90;79.40;;;;;;5028214;28;20026;-85
2022/02/06 06:56:00;;;;;;;2.60;0.60;;;3.90;78.90;;;;;;5021785;28;20029;-84
2022/02/06 06:58:35;;;;;;;4.15;0.85;;;3.90;78.90;;;;;;5021551;28;20026;-84
2022/02/06 07:03:31;;;;;;;4.28;0.60;;;3.90;78.90;;;;;;5022553;28;20022;-85
2022/02/06 07:05:58;;;;;;;1.75;0.47;;;3.90;78.80;;;;;;5021645;28;20038;-84
2022/02/06 07:08:25;;;;;;;2.30;0.50;;;3.90;79.50;;;;;;5021056;28;20034;-85
2022/02/06 07:10:51;;;;;;;3.13;0.90;;;4.00;79.10;;;;;;5021105;28;20030;-84
2022/02/06 07:13:21;;;;;;;4.35;0.85;;;4.00;78.50;;;;;;5022251;28;20376;-86
2022/02/06 07:15:47;;;;;;;3.55;0.65;;;4.00;78.30;;;;;;5022105;28;20026;-85
2022/02/06 07:18:13;;;;;;;5.03;1.13;;;4.00;78.50;;;;;;5038190;28;20173;-83
2022/02/06 07:20:39;;;;;;;3.60;0.95;;;4.00;78.40;;;;;;5042726;28;20387;-84
2022/02/06 07:23:07;;;;;;;4.20;1.00;;;4.10;78.40;;;;;;5023899;28;20044;-84
2022/02/06 07:25:34;;;;;;;4.43;0.90;;;4.10;77.70;;;;;;5042057;28;20025;-84
2022/02/06 07:28:00;;;;;;;3.03;0.73;;;4.20;77.70;;;;;;5022718;28;20022;-87
2022/02/06 07:30:26;;;;;;;2.05;0.60;;;4.20;77.60;;;;;;5020174;28;20125;-84
2022/02/06 07:32:53;;;;;;;3.35;1.00;;;4.20;77.40;;;;;;5022342;28;20055;-84
2022/02/06 07:35:21;;;;;;;3.03;0.65;;;4.30;76.70;;;;;;5021028;28;20053;-84
2022/02/06 07:37:55;;;;;;;1.55;0.60;;;4.30;76.30;;;;;;5026326;28;20022;-83
2022/02/06 07:40:22;;;;;;;2.70;0.63;;;4.40;75.60;;;;;;5041143;28;20099;-85
2022/02/06 07:42:51;;;;;;;3.92;0.80;;;4.40;75.50;;;;;;5022997;28;20586;-85
2022/02/06 07:45:17;;;;;;;2.50;0.75;;;4.40;75.70;;;;;;5022931;28;20028;-85
2022/02/06 07:47:45;;;;;;;3.78;0.80;;;4.40;74.80;;;;;;5036671;28;20030;-84
2022/02/06 07:50:16;;;;;;;4.78;0.95;;;4.40;74.40;;;;;;5041424;28;20029;-85
2022/02/06 07:52:42;;;;;;;3.08;0.70;;;4.40;74.00;;;;;;5018949;28;20463;-83
2022/02/06 07:55:09;;;;;;;2.38;0.70;;;4.40;73.30;;;;;;5001262;28;20090;-86
2022/02/06 07:57:35;;;;;;;2.22;0.75;;;4.40;73.30;;;;;;5002816;28;20060;-83
2022/02/06 08:00:05;;;;;;;2.97;0.88;;;4.30;73.10;;;;;;5003399;28;20019;-83
2022/02/06 08:02:36;;;;;;;1.10;0.47;;;4.30;73.30;;;;;;5031007;28;20046;-85
2022/02/06 08:05:02;;;;;;;3.85;0.85;;;4.20;73.50;;;;;;5009079;28;20494;-84
2022/02/06 08:07:29;;;;;;;2.58;0.85;;;4.20;73.70;;;;;;5007764;28;20109;-85
2022/02/06 08:09:59;;;;;;;4.40;0.55;;;4.40;73.20;;;;;;5030551;28;20026;-84
2022/02/06 08:12:31;;;;;;;2.42;0.60;;;4.80;72.30;;;;;;5006919;28;20053;-85
2022/02/06 08:15:03;;;;;;;6.05;0.52;;;5.00;71.20;;;;;;5009445;28;20056;-84
2022/02/06 08:17:32;;;;;;;3.20;0.50;;;5.00;70.80;;;;;;5015060;28;20038;-84
2022/02/06 08:20:18;;;;;;;2.03;0.57;;;5.20;70.70;;;;;;5014841;28;20014;-84
2022/02/06 08:22:44;;;;;;;2.05;0.68;;;5.30;70.10;;;;;;5015492;28;20034;-83
2022/02/06 08:25:13;;;;;;;2.17;0.45;;;6.30;70.20;;;;;;5024313;28;20090;-84
2022/02/06 08:27:39;;;;;;;3.45;0.60;;;7.80;64.60;;;;;;5021738;28;20022;-83
2022/02/06 08:30:06;;;;;;;1.88;0.63;;;7.90;61.80;;;;;;5024374;28;20360;-84
2022/02/06 08:32:33;;;;;;;1.42;0.60;;;7.50;61.90;;;;;;5024995;28;20089;-83
2022/02/06 08:34:59;;;;;;;6.13;0.73;;;7.10;63.20;;;;;;5022666;28;20084;-83
2022/02/06 08:37:24;;;;;;;1.42;0.63;;;6.90;63.70;;;;;;5020763;28;20029;-83
2022/02/06 08:39:51;;;;;;;1.30;0.52;;;6.80;64.20;;;;;;5019327;28;20030;-84
2022/02/06 08:42:17;;;;;;;4.15;1.05;;;6.80;65.00;;;;;;5021164;28;20030;-86
2022/02/06 08:44:45;;;;;;;3.80;0.82;;;6.90;64.50;;;;;;5020973;28;20106;-84
2022/02/06 08:47:13;;;;;;;2.08;0.52;;;6.80;64.30;;;;;;5023708;28;20013;-83
2022/02/06 08:49:39;;;;;;;3.28;0.73;;;6.80;64.40;;;;;;5023354;28;20505;-85
2022/02/06 08:52:07;;;;;;;4.43;0.77;;;6.80;64.70;;;;;;5010563;28;20427;-84
2022/02/06 08:54:35;;;;;;;2.53;0.80;;;6.90;65.30;;;;;;5002976;28;20033;-84
2022/02/06 08:57:13;;;;;;;4.47;0.75;;;7.10;64.30;;;;;;5007876;28;20021;-84
2022/02/06 08:59:39;;;;;;;4.53;0.77;;;7.30;63.50;;;;;;5021568;28;20022;-83
2022/02/06 09:02:05;;;;;;;4.45;0.80;;;7.50;62.80;;;;;;5020645;28;20026;-83
2022/02/06 09:04:31;;;;;;;6.65;1.10;;;7.60;61.30;;;;;;5019289;28;20168;-84
2022/02/06 09:07:02;;;;;;;2.03;0.70;;;7.60;61.40;;;;;;5002132;28;20034;-84
2022/02/06 09:09:33;;;;;;;7.30;1.10;;;7.70;61.00;;;;;;5003343;28;20033;-83
2022/02/06 09:12:00;;;;;;;4.40;0.70;;;7.90;61.10;;;;;;5001800;28;20038;-83
2022/02/06 09:14:27;;;;;;;5.65;1.13;;;8.00;60.10;;;;;;4999022;28;20075;-81
2022/02/06 09:16:53;;;;;;;5.57;0.85;;;8.00;59.70;;;;;;4997432;28;20023;-83
2022/02/06 09:19:20;;;;;;;3.33;1.25;;;7.90;59.20;;;;;;4994987;28;20030;-81
2022/02/06 09:21:46;;;;;;;3.03;0.80;;;7.70;60.00;;;;;;5007703;28;20026;-80
2022/02/06 09:24:12;;;;;;;3.75;0.80;;;7.70;60.20;;;;;;5008234;28;20029;-81
2022/02/06 09:26:40;;;;;;;6.65;1.23;;;7.60;60.20;;;;;;5000495;28;20018;-81
2022/02/06 09:29:06;;;;;;;5.45;0.70;;;7.40;60.80;;;;;;4998131;28;20590;-82
2022/02/06 09:31:33;;;;;;;3.22;0.68;;;7.40;60.80;;;;;;5000694;28;20122;-84
2022/02/06 09:36:25;;;;;;;3.85;0.80;;;7.50;61.00;;;;;;5015711;28;20026;-86
2022/02/06 09:38:51;;;;;;;2.70;0.60;;;7.50;60.90;;;;;;5012348;28;20026;-84
2022/02/06 09:41:17;;;;;;;3.00;0.65;;;7.50;60.80;;;;;;5030800;22;20094;-78
2022/02/06 09:43:44;;;;;;;4.60;0.90;;;7.50;60.50;;;;;;5003785;28;20018;-80
2022/02/06 09:46:13;;;;;;;2.67;0.98;;;7.40;60.90;;;;;;5019759;28;20022;-80
2022/02/06 09:48:40;;;;;;;2.03;0.52;;;7.40;61.20;;;;;;5021964;28;20029;-79
2022/02/06 09:51:08;;;;;;;2.85;0.45;;;7.40;61.30;;;;;;5022380;28;20030;-79
2022/02/06 09:53:35;;;;;;;3.50;1.20;;;7.60;60.70;;;;;;5021960;28;20119;-79
2022/02/06 09:56:07;;;;;;;7.25;2.88;;;7.60;60.80;;;;;;5022972;28;20438;-80
2022/02/06 10:01:09;;;;;;;3.83;0.73;;;7.70;60.90;;;;;;5001691;28;20218;-79
2022/02/06 10:03:47;;;;;;;5.43;0.80;;;7.90;59.90;;;;;;5004093;28;20022;-80
2022/02/06 10:06:29;;;;;;;2.13;0.70;;;8.10;59.50;;;;;;5008965;28;20097;-80
2022/02/06 10:09:01;;;;;;;4.10;0.77;;;8.20;59.10;;;;;;4986344;28;20027;-79
2022/02/06 10:11:30;;;;;;;1.33;0.40;;;8.20;58.30;;;;;;4996983;28;20097;-80
2022/02/06 10:13:55;;;;;;;3.80;0.77;;;8.20;58.20;;;;;;5021727;28;20482;-79
2022/02/06 10:16:21;;;;;;;2.17;0.45;;;8.10;58.30;;;;;;5007284;28;20049;-81
2022/02/06 10:18:47;;;;;;;2.97;0.63;;;8.10;58.50;;;;;;5008366;28;20023;-80
2022/02/06 10:21:21;;;;;;;2.38;0.65;;;8.20;58.30;;;;;;5014133;28;20076;-79
2022/02/06 10:24:00;;;;;;;5.57;0.70;;;8.20;58.80;;;;;;5018788;28;20501;-79
2022/02/06 10:26:52;;;;;;;3.45;0.63;;;8.30;58.50;;;;;;5015069;28;20019;-80
2022/02/06 10:31:51;;;;;;;2.28;0.73;;;8.20;58.00;;;;;;5016194;28;20046;-81
2022/02/06 10:34:24;;;;;;;2.90;0.98;;;8.40;57.70;;;;;;5017351;28;20038;-80
2022/02/06 10:37:07;;;;;;;1.35;0.40;;;8.50;56.90;;;;;;5011301;28;20026;-80
2022/02/06 10:39:33;;;;;;;1.50;0.40;;;8.50;56.90;;;;;;5010322;28;20037;-78
2022/02/06 10:41:59;;;;;;;2.38;0.80;;;8.60;57.40;;;;;;5020369;28;20025;-80
2022/02/06 10:44:29;;;;;;;3.92;0.63;;;8.80;56.70;;;;;;5019947;28;20030;-81
2022/02/06 10:46:58;;;;;;;3.90;0.75;;;8.90;56.10;;;;;;5029371;28;20033;-82
2022/02/06 10:49:25;;;;;;;1.50;0.52;;;8.80;55.50;;;;;;5031128;28;20017;-80
2022/02/06 10:51:57;;;;;;;7.10;0.70;;;8.70;55.70;;;;;;5029072;28;20022;-79
2022/02/06 10:54:28;;;;;;;;;;;8.60;55.90;;;;;;5026228;28;20025;-80
2022/02/06 10:57:13;;;;;;;2.63;0.65;;;8.50;56.50;;;;;;5010113;28;20279;-80
2022/02/06 10:59:56;;;;;;;3.08;0.80;;;8.40;56.90;;;;;;5008757;28;20026;-79
2022/02/06 11:02:48;;;;;;;2.78;0.70;;;8.40;57.40;;;;;;5011419;28;20010;-82
2022/02/06 11:05:21;;;;;;;4.20;1.20;;;8.40;57.90;;;;;;5004201;28;20019;-80
2022/02/06 11:08:02;;;;;;;5.15;0.75;;;8.40;57.40;;;;;;5003870;28;20114;-80
2022/02/06 11:10:31;;;;;;;3.00;0.93;;;8.40;58.00;;;;;;5013803;28;20018;-80
2022/02/06 11:13:02;;;;;;;1.75;0.63;;;8.50;57.50;;;;;;5024270;28;20378;-80
2022/02/06 11:15:45;;;;;;;7.15;1.15;;;8.60;56.60;;;;;;5008077;28;20419;-80
2022/02/06 11:18:19;;;;;;;3.15;0.88;;;8.70;57.00;;;;;;5005406;28;20121;-80
2022/02/06 11:21:07;;;;;;;2.03;0.88;;;8.70;56.90;;;;;;5008558;28;20029;-79
2022/02/06 11:23:39;;;;;;;2.75;1.02;;;8.70;56.70;;;;;;5016566;28;20022;-79
2022/02/06 11:26:12;;;;;;;4.22;0.75;;;8.80;57.40;;;;;;5012710;28;20030;-80
2022/02/06 11:28:44;;;;;;;;;;;8.80;57.60;;;;;;5015927;28;20011;-79
2022/02/06 11:31:16;;;;;;;2.63;0.65;;;8.90;56.80;;;;;;5014667;28;19933;-80
2022/02/06 11:33:43;;;;;;;3.80;0.80;;;8.80;56.10;;;;;;5012307;28;20038;-80
2022/02/06 11:43:02;;;;;;;3.55;0.85;;;8.80;56.50;;;;;;5012855;28;20120;-79
2022/02/06 11:45:26;;;;;;;2.97;0.77;;;9.10;56.30;;;;;;5030405;28;20092;-81
2022/02/06 11:47:59;;;;;;;1.27;0.65;;;9.10;55.40;;;;;;5027557;28;20041;-82
2022/02/06 11:50:28;;;;;;;1.63;0.60;;;8.90;55.30;;;;;;5004694;28;20026;-81
2022/02/06 11:52:59;;;;;;;1.42;0.70;;;8.70;55.00;;;;;;5004404;28;20022;-82
2022/02/06 11:55:34;;;;;;;2.22;0.70;;;8.50;55.50;;;;;;5009607;28;20022;-81
2022/02/06 11:58:35;;;;;;;2.15;0.63;;;8.40;55.50;;;;;;5005148;28;20027;-81
2022/02/06 12:01:06;;;;;;;3.60;0.60;;;8.40;55.20;;;;;;4986224;28;20094;-81
2022/02/06 12:03:59;;;;;;;3.85;1.00;;;8.30;54.60;;;;;;4985376;28;20018;-81
2022/02/06 12:06:45;;;;;;;1.20;0.60;;;8.20;54.90;;;;;;4986200;28;20037;-82
2022/02/06 12:09:12;;;;;;;1.23;0.80;;;8.10;55.20;;;;;;4988736;28;20026;-81
2022/02/06 12:11:37;;;;;;;3.80;1.08;;;8.10;55.40;;;;;;5009795;28;20040;-81
2022/02/06 12:14:19;;;;;;;1.23;0.57;;;8.00;56.20;;;;;;5025672;28;20057;-81
2022/02/06 12:16:52;;;;;;;2.90;0.60;;;8.10;56.10;;;;;;4992362;28;20037;-81
2022/02/06 12:19:36;;;;;;;4.47;0.60;;;8.00;55.60;;;;;;4996198;28;20022;-80
2022/02/06 12:22:27;;;;;;;2.92;0.73;;;8.10;55.50;;;;;;5015200;28;20045;-81
2022/02/06 12:25:13;;;;;;;2.17;0.80;;;8.10;55.50;;;;;;5017943;28;20030;-81
2022/02/06 12:27:39;;;;;;;3.38;0.50;;;8.20;55.40;;;;;;5015519;28;20046;-80
2022/02/06 12:30:07;;;;;;;3.13;0.57;;;8.20;53.40;;;;;;5016598;28;20085;-82
2022/02/06 12:32:40;;;;;;;2.15;0.60;;;8.20;52.60;;;;;;5009944;28;20031;-83
2022/02/06 12:37:53;;;;;;;4.90;0.70;;;8.20;53.10;;;;;;4997145;28;20018;-82
2022/02/06 12:40:21;;;;;;;2.03;0.57;;;8.20;54.10;;;;;;5001381;28;20034;-80
2022/02/06 12:42:50;;;;;;;2.97;0.55;;;8.20;54.10;;;;;;5000000;28;20117;-81
2022/02/06 12:45:22;;;;;;;2.28;0.60;;;8.20;54.40;;;;;;5022181;28;20025;-82
2022/02/06 12:48:09;;;;;;;2.22;0.82;;;8.20;54.60;;;;;;5003849;28;20018;-82
2022/02/06 12:50:38;;;;;;;6.65;0.70;;;8.20;55.10;;;;;;5016061;28;20014;-81
2022/02/06 12:53:05;;;;;;;0.63;0.40;;;8.20;55.60;;;;;;5014110;28;20026;-81
2022/02/06 12:55:38;;;;;;;2.45;0.47;;;8.30;55.30;;;;;;5014766;28;20022;-83
2022/02/06 12:58:09;;;;;;;2.25;0.70;;;8.30;55.20;;;;;;5012759;28;20026;-82
2022/02/06 13:00:46;;;;;;;1.58;0.70;;;8.40;55.40;;;;;;5009390;28;20041;-81
2022/02/06 13:03:27;;;;;;;3.70;1.40;;;8.30;55.40;;;;;;5008743;28;20023;-81
2022/02/06 13:05:56;;;;;;;3.95;0.70;;;8.20;55.30;;;;;;5006518;28;20018;-81
2022/02/06 13:08:23;;;;;;;4.13;0.95;;;8.20;56.10;;;;;;5007050;28;20071;-81
2022/02/06 13:11:01;;;;;;;1.58;0.50;;;8.10;56.50;;;;;;5006686;28;20050;-81
2022/02/06 13:13:36;;;;;;;3.50;0.50;;;8.00;56.90;;;;;;5023352;28;20022;-82
2022/02/06 13:16:22;;;;;;;3.70;0.60;;;8.00;57.60;;;;;;5006961;28;20027;-82
2022/02/06 13:29:33;;;;;;;4.43;0.40;;;7.90;58.90;;;;;;5005809;28;20030;-79
2022/02/06 13:32:24;;;;;;;3.60;0.68;;;7.80;58.70;;;;;;5006704;28;20443;-82
2022/02/06 13:35:30;;;;;;;2.42;0.50;;;7.80;57.90;;;;;;5005731;28;20463;-81
2022/02/06 13:38:00;;;;;;;1.98;0.40;;;7.80;57.80;;;;;;5005049;28;20030;-82
2022/02/06 13:40:32;;;;;;;2.67;0.60;;;7.80;58.00;;;;;;5010795;28;20094;-80
2022/02/06 13:43:04;;;;;;;1.73;0.43;;;7.80;58.20;;;;;;5005050;28;20053;-80
2022/02/06 13:45:33;;;;;;;;;;;7.80;58.20;;;;;;5015283;28;20475;-81
2022/02/06 13:48:00;;;;;;;1.25;0.60;;;7.80;58.40;;;;;;5006443;28;19937;-80
2022/02/06 13:50:28;;;;;;;4.07;0.70;;;7.80;58.50;;;;;;5007485;28;20113;-80
2022/02/06 13:53:23;;;;;;;1.52;0.80;;;7.70;58.50;;;;;;5007066;28;20037;-81
2022/02/06 13:56:11;;;;;;;2.35;0.40;;;7.70;58.70;;;;;;5006944;28;20030;-82
2022/02/06 13:58:40;;;;;;;3.38;0.50;;;7.70;58.80;;;;;;5017913;28;20019;-80
2022/02/06 14:01:08;;;;;;;1.20;0.60;;;7.70;58.80;;;;;;5017474;28;20029;-80
2022/02/06 14:03:49;;;;;;;3.17;0.75;;;7.60;59.10;;;;;;5021228;28;20050;-81
2022/02/06 14:06:23;;;;;;;5.20;0.70;;;7.60;59.40;;;;;;5036916;28;20022;-81
2022/02/06 14:09:26;;;;;;;2.55;0.57;;;7.60;59.40;;;;;;5017409;28;20057;-81
2022/02/06 14:12:16;;;;;;;4.75;0.77;;;7.60;59.70;;;;;;5025574;28;20014;-81
2022/02/06 14:14:51;;;;;;;0.95;0.50;;;7.50;59.70;;;;;;4996346;28;20035;-80
2022/02/06 14:17:21;;;;;;;1.30;0.50;;;7.40;60.10;;;;;;4990641;28;20042;-80
2022/02/06 14:19:48;;;;;;;1.10;0.50;;;7.40;60.30;;;;;;4988157;28;20102;-81
2022/02/06 14:22:35;;;;;;;1.50;0.50;;;7.40;60.70;;;;;;4990110;28;20034;-81
2022/02/06 14:25:08;;;;;;;1.88;0.80;;;7.40;60.20;;;;;;4988255;28;20097;-81
2022/02/06 14:27:42;;;;;;;2.58;0.70;;;7.40;60.30;;;;;;4989649;28;20030;-81
2022/02/06 14:30:21;;;;;;;0.70;0.50;;;7.40;60.70;;;;;;4990894;28;20165;-80
2022/02/06 14:32:56;;;;;;;2.20;0.63;;;7.40;60.90;;;;;;4990471;28;20031;-79
2022/02/06 14:35:27;;;;;;;2.05;0.60;;;7.40;61.10;;;;;;5003833;28;20476;-80
2022/02/06 14:37:56;;;;;;;2.28;0.50;;;7.40;61.10;;;;;;4986729;28;20046;-80
2022/02/06 14:40:48;;;;;;;1.92;0.50;;;7.30;61.30;;;;;;4986939;28;20030;-81
2022/02/06 14:43:16;;;;;;;4.05;0.65;;;7.40;61.30;;;;;;5020014;28;20029;-80
2022/02/06 14:45:50;;;;;;;2.15;0.35;;;7.40;61.30;;;;;;5029510;28;20026;-81
2022/02/06 14:48:17;;;;;;;1.10;0.68;;;7.30;61.30;;;;;;5037296;28;20026;-81
2022/02/06 14:50:47;;;;;;;3.47;0.65;;;7.30;61.50;;;;;;5032366;28;20029;-80
2022/02/06 14:53:14;;;;;;;2.85;0.38;;;7.30;61.70;;;;;;5030803;28;20036;-81
2022/02/06 14:55:42;;;;;;;1.08;0.50;;;7.40;61.60;;;;;;5037709;28;20033;-80
2022/02/06 14:58:09;;;;;;;4.47;0.45;;;7.40;61.70;;;;;;5024259;28;20144;-80
2022/02/06 15:00:35;;;;;;;3.63;0.70;;;7.40;61.70;;;;;;5023382;28;20475;-81
2022/02/06 15:03:01;;;;;;;2.28;0.73;;;7.40;61.90;;;;;;5027908;28;20096;-80
2022/02/06 15:05:28;;;;;;;1.30;0.47;;;7.40;62.10;;;;;;5027769;28;20026;-81
2022/02/06 15:07:54;;;;;;;2.88;0.50;;;7.40;62.40;;;;;;5025868;28;20179;-80
2022/02/06 15:10:20;;;;;;;3.38;0.63;;;7.40;62.50;;;;;;5026920;28;20022;-81
2022/02/06 15:12:46;;;;;;;3.20;0.60;;;7.40;62.50;;;;;;5019299;28;20085;-80
2022/02/06 15:15:13;;;;;;;3.38;0.70;;;7.30;62.60;;;;;;5016897;28;20118;-81
2022/02/06 15:17:39;;;;;;;1.27;0.40;;;7.40;62.50;;;;;;5025269;28;20416;-81
2022/02/06 15:20:06;;;;;;;3.60;0.57;;;7.40;62.70;;;;;;5025220;28;20026;-80
2022/02/06 15:22:31;;;;;;;2.17;0.43;;;7.40;62.70;;;;;;5010101;28;20046;-81
2022/02/06 15:24:57;;;;;;;1.75;0.50;;;7.40;63.00;;;;;;5004726;28;20118;-82
2022/02/06 15:27:23;;;;;;;2.90;0.60;;;7.30;63.20;;;;;;4990891;28;20046;-80
2022/02/06 15:29:49;;;;;;;1.65;0.60;;;7.40;63.50;;;;;;4989197;28;20026;-80
2022/02/06 15:32:17;;;;;;;3.35;0.80;;;7.40;63.40;;;;;;4987533;28;20027;-81
2022/02/06 15:34:44;;;;;;;1.45;0.43;;;7.50;63.80;;;;;;4986958;28;20033;-79
2022/02/06 15:37:15;;;;;;;1.05;0.40;;;7.40;64.30;;;;;;4985035;28;20031;-80
2022/02/06 15:39:41;;;;;;;1.15;0.38;;;7.40;64.70;;;;;;4984846;28;20030;-79
2022/02/06 15:42:16;;;;;;;1.23;0.50;;;7.50;66.60;;;;;;5011914;23;20124;-84
2022/02/06 15:44:47;;;;;;;2.60;0.30;;;7.30;69.50;;;;;;5021221;28;20030;-85
2022/02/06 15:47:14;;;;;;;3.67;0.50;;;7.10;73.60;;;;;;5023614;28;20398;-85